createdAt,value
2022-12-18T05:05:33.776Z,47.35
2022-12-18T05:06:33.670Z,47.39
2022-12-18T05:07:33.602Z,47.58
2022-12-18T05:08:33.597Z,47.50
2022-12-18T05:09:33.587Z,47.30
2022-12-18T05:10:37.957Z,47.30
2022-12-18T05:11:34.575Z,47.60
2022-12-18T05:12:33.556Z,47.77
2022-12-18T05:13:33.587Z,47.78
2022-12-18T05:14:33.584Z,47.85
2022-12-18T05:15:33.571Z,47.94
2022-12-18T05:16:33.620Z,48.25
2022-12-18T05:17:33.531Z,48.32
2022-12-18T05:18:33.567Z,48.36
2022-12-18T05:19:33.568Z,48.51
2022-12-18T05:20:33.595Z,48.41
2022-12-18T05:21:33.501Z,48.29
2022-12-18T05:22:33.529Z,48.18
2022-12-18T05:23:33.503Z,47.88
2022-12-18T05:24:33.489Z,48.19
2022-12-18T05:25:33.518Z,48.32
2022-12-18T05:26:33.516Z,47.92
2022-12-18T05:27:33.503Z,47.59
2022-12-18T05:28:33.513Z,47.94
2022-12-18T05:29:33.455Z,47.94
2022-12-18T05:30:33.450Z,48.17
2022-12-18T05:31:38.889Z,47.63
2022-12-18T05:32:36.549Z,47.93
2022-12-18T05:33:33.743Z,48.08
2022-12-18T05:34:33.461Z,47.99
2022-12-18T05:35:33.413Z,48.20
2022-12-18T05:36:33.508Z,48.47
2022-12-18T05:37:36.892Z,48.60
2022-12-18T05:38:34.420Z,48.85
2022-12-18T05:39:33.551Z,48.89
2022-12-18T05:40:33.497Z,48.81
2022-12-18T05:41:33.397Z,48.82
2022-12-18T05:42:33.390Z,48.81
2022-12-18T05:43:33.447Z,49.05
2022-12-18T05:44:33.372Z,49.04
2022-12-18T05:45:33.362Z,49.10
2022-12-18T05:46:33.414Z,49.12
2022-12-18T05:47:33.372Z,49.18
2022-12-18T05:48:33.348Z,49.01
2022-12-18T05:49:33.359Z,48.99
2022-12-18T05:50:33.357Z,48.98
2022-12-18T05:51:33.353Z,49.00
2022-12-18T05:52:33.410Z,49.06
2022-12-18T05:53:33.330Z,49.22
2022-12-18T05:54:33.346Z,49.35
2022-12-18T05:55:33.302Z,48.92
2022-12-18T05:56:33.343Z,48.67
2022-12-18T05:57:33.305Z,48.35
2022-12-18T05:58:33.297Z,48.55
2022-12-18T05:59:33.298Z,48.64
2022-12-18T06:00:33.273Z,48.81
2022-12-18T06:01:33.305Z,49.53
2022-12-18T06:02:33.360Z,48.73
2022-12-18T06:03:34.153Z,48.90
2022-12-18T06:04:34.292Z,48.84
2022-12-18T06:05:33.265Z,49.70
2022-12-18T06:06:33.273Z,48.73
2022-12-18T06:07:33.273Z,48.80
2022-12-18T06:08:33.346Z,48.70
2022-12-18T06:09:33.262Z,48.56
2022-12-18T06:10:33.262Z,48.74
2022-12-18T06:11:33.225Z,49.36
2022-12-18T06:12:33.243Z,48.99
2022-12-18T06:13:33.881Z,48.54
2022-12-18T06:14:33.224Z,48.49
2022-12-18T06:15:33.195Z,48.14
2022-12-18T06:16:33.292Z,47.93
2022-12-18T06:17:33.229Z,48.24
2022-12-18T06:18:33.228Z,48.54
2022-12-18T06:19:33.222Z,48.87
2022-12-18T06:20:33.760Z,48.65
2022-12-18T06:21:34.168Z,48.47
2022-12-18T06:22:33.168Z,48.38
2022-12-18T06:23:33.165Z,48.31
2022-12-18T06:24:33.220Z,48.40
2022-12-18T06:25:33.137Z,49.11
2022-12-18T06:26:33.138Z,48.78
2022-12-18T06:27:33.130Z,49.14
2022-12-18T06:28:33.174Z,48.87
2022-12-18T06:29:33.126Z,48.92
2022-12-18T06:30:33.120Z,48.83
2022-12-18T06:31:33.197Z,49.18
2022-12-18T06:32:33.102Z,49.29
2022-12-18T06:33:33.117Z,49.97
2022-12-18T06:34:33.123Z,49.13
2022-12-18T06:35:33.114Z,49.18
2022-12-18T06:36:33.106Z,49.14
2022-12-18T06:37:33.132Z,49.13
2022-12-18T06:38:33.127Z,49.02
2022-12-18T06:39:33.053Z,48.97
2022-12-18T06:40:33.138Z,49.35
2022-12-18T06:41:33.097Z,50.07
2022-12-18T06:42:33.097Z,49.83
2022-12-18T06:43:33.079Z,50.00
2022-12-18T06:44:33.094Z,49.68
2022-12-18T06:45:33.058Z,49.65
2022-12-18T06:46:33.029Z,51.57
2022-12-18T06:47:33.068Z,50.06
2022-12-18T06:48:33.051Z,50.13
2022-12-18T06:49:33.029Z,49.79
2022-12-18T06:50:33.056Z,50.02
2022-12-18T06:51:32.997Z,50.36
2022-12-18T06:52:32.986Z,51.08
2022-12-18T06:53:33.024Z,50.42
2022-12-18T06:54:33.031Z,50.08
2022-12-18T06:55:32.964Z,49.88
2022-12-18T06:56:33.077Z,49.91
2022-12-18T06:57:33.013Z,51.38
2022-12-18T06:58:32.943Z,49.83
2022-12-18T06:59:33.004Z,49.76
2022-12-18T07:00:32.969Z,49.82
2022-12-18T07:01:33.085Z,50.04
